createdAt,value
2022-11-10T00:01:09.431Z,20.98
2022-11-10T00:03:37.809Z,21.10
2022-11-10T00:06:06.316Z,20.15
2022-11-10T00:08:33.464Z,20.48
2022-11-10T00:11:06.394Z,22.33
2022-11-10T00:13:35.542Z,20.73
2022-11-10T00:16:23.337Z,19.33
2022-11-10T00:18:50.867Z,21.40
2022-11-10T00:21:18.525Z,21.85
2022-11-10T00:23:47.683Z,21.15
2022-11-10T00:26:19.705Z,20.42
2022-11-10T00:28:46.482Z,20.90
2022-11-10T00:31:13.975Z,21.42
2022-11-10T00:33:44.766Z,20.77
2022-11-10T00:36:11.663Z,20.67
2022-11-10T00:38:38.591Z,21.25
2022-11-10T00:41:05.760Z,19.70
2022-11-10T00:43:33.109Z,20.45
2022-11-10T00:46:00.190Z,21.70
2022-11-10T00:48:26.969Z,20.77
2022-11-10T00:50:53.768Z,21.83
2022-11-10T00:53:21.082Z,20.27
2022-11-10T00:55:49.104Z,21.63
2022-11-10T00:58:16.200Z,21.80
2022-11-10T01:00:43.078Z,21.50
2022-11-10T01:03:15.068Z,20.65
2022-11-10T01:05:42.703Z,20.30
2022-11-10T01:08:10.482Z,22.23
2022-11-10T01:10:37.428Z,21.50
2022-11-10T01:13:04.301Z,20.38
2022-11-10T01:15:31.102Z,22.13
2022-11-10T01:17:57.940Z,21.70
2022-11-10T01:20:25.397Z,22.15
2022-11-10T01:22:52.220Z,21.70
2022-11-10T01:25:19.136Z,20.35
2022-11-10T01:27:45.965Z,21.30
2022-11-10T01:30:13.283Z,22.17
2022-11-10T01:32:40.254Z,20.05
2022-11-10T01:35:08.614Z,22.92
2022-11-10T01:37:36.230Z,22.03
2022-11-10T01:40:04.988Z,21.83
2022-11-10T01:43:01.259Z,21.08
2022-11-10T01:45:45.693Z,20.43
2022-11-10T01:48:41.528Z,21.25
2022-11-10T01:51:22.975Z,20.02
2022-11-10T01:53:54.584Z,20.58
2022-11-10T01:56:22.130Z,21.07
2022-11-10T01:58:56.336Z,20.15
2022-11-10T02:01:24.308Z,20.55
2022-11-10T02:03:55.943Z,21.20
2022-11-10T02:06:28.652Z,21.38
2022-11-10T02:08:57.694Z,22.05
2022-11-10T02:11:25.439Z,21.48
2022-11-10T02:13:53.277Z,22.42
2022-11-10T02:16:21.359Z,21.98
2022-11-10T02:18:49.043Z,22.33
2022-11-10T02:21:20.843Z,18.10
2022-11-10T02:23:50.432Z,22.13
2022-11-10T02:26:38.232Z,19.87
2022-11-10T02:29:05.075Z,20.10
2022-11-10T02:31:31.834Z,21.20
2022-11-10T02:33:58.639Z,20.30
2022-11-10T02:36:25.420Z,19.98
2022-11-10T02:38:52.179Z,20.20
2022-11-10T02:41:18.955Z,20.13
2022-11-10T02:43:46.053Z,20.17
2022-11-10T02:46:12.935Z,18.65
2022-11-10T02:48:39.815Z,21.10
2022-11-10T02:51:06.681Z,20.70
2022-11-10T02:53:33.469Z,20.35
2022-11-10T02:56:00.386Z,20.40
2022-11-10T02:58:27.150Z,19.55
2022-11-10T03:00:54.000Z,23.27
2022-11-10T03:03:21.157Z,21.87
2022-11-10T03:05:48.159Z,21.70
2022-11-10T03:08:14.953Z,22.13
2022-11-10T03:10:41.836Z,21.50
2022-11-10T03:13:08.661Z,20.77
2022-11-10T03:15:35.517Z,21.42
2022-11-10T03:18:05.789Z,22.08
2022-11-10T03:20:33.014Z,22.40
2022-11-10T03:23:04.569Z,22.03
2022-11-10T03:25:32.114Z,22.63
2022-11-10T03:27:59.160Z,19.95
2022-11-10T03:30:26.961Z,21.35
2022-11-10T03:32:53.764Z,20.70
2022-11-10T03:35:20.520Z,19.80
2022-11-10T03:37:47.336Z,20.00
2022-11-10T03:40:14.213Z,19.48
2022-11-10T03:42:45.037Z,20.80
2022-11-10T03:45:13.694Z,19.40
2022-11-10T03:47:40.960Z,19.50
2022-11-10T03:50:08.322Z,21.40
2022-11-10T03:52:35.150Z,19.90
2022-11-10T03:55:03.596Z,19.87
2022-11-10T03:57:30.607Z,20.90
2022-11-10T03:59:57.444Z,19.77
2022-11-10T04:02:24.232Z,21.10
2022-11-10T04:05:09.391Z,20.33
2022-11-10T04:07:54.827Z,21.87
2022-11-10T04:10:21.628Z,21.45
2022-11-10T04:13:07.499Z,19.00
2022-11-10T04:15:43.415Z,19.40
2022-11-10T04:18:21.298Z,20.33
2022-11-10T04:20:49.070Z,20.50
2022-11-10T04:23:28.103Z,18.15
2022-11-10T04:26:18.131Z,18.80
2022-11-10T04:28:47.460Z,19.75
2022-11-10T04:31:15.843Z,18.10
2022-11-10T04:33:43.317Z,22.27
2022-11-10T04:36:12.464Z,20.63
2022-11-10T04:38:40.116Z,21.45
2022-11-10T04:41:07.940Z,19.80
2022-11-10T04:43:35.002Z,22.40
2022-11-10T04:46:02.331Z,20.40
2022-11-10T04:48:30.223Z,20.60
2022-11-10T04:50:57.251Z,19.23
2022-11-10T04:53:25.478Z,19.08
2022-11-10T04:55:53.588Z,19.93
2022-11-10T04:58:20.509Z,18.67
2022-11-10T05:00:47.316Z,19.73
2022-11-10T05:03:14.239Z,18.65
2022-11-10T05:05:41.397Z,18.02
2022-11-10T05:08:09.011Z,19.90
2022-11-10T05:10:37.828Z,21.75
2022-11-10T05:13:05.086Z,20.35
2022-11-10T05:15:33.187Z,18.50
2022-11-10T05:18:00.566Z,20.45
2022-11-10T05:20:27.633Z,20.13
2022-11-10T05:23:13.225Z,18.00
2022-11-10T05:25:42.035Z,19.10
2022-11-10T05:28:10.512Z,22.00
2022-11-10T05:30:37.888Z,20.70
2022-11-10T05:33:05.443Z,21.67
2022-11-10T05:35:33.406Z,20.40
2022-11-10T05:38:00.473Z,21.97
2022-11-10T05:40:27.799Z,21.52
2022-11-10T05:42:54.725Z,21.67
2022-11-10T05:45:23.583Z,21.92
2022-11-10T05:47:51.239Z,22.52
2022-11-10T05:50:19.507Z,21.40
2022-11-10T05:52:50.388Z,22.83
2022-11-10T05:55:19.600Z,22.80
2022-11-10T05:57:47.852Z,24.17
2022-11-10T06:00:17.202Z,22.23
2022-11-10T06:02:44.400Z,22.70
2022-11-10T06:05:12.234Z,22.93
2022-11-10T06:07:39.211Z,22.40
2022-11-10T06:10:06.521Z,22.63
2022-11-10T06:12:33.412Z,21.80
2022-11-10T06:15:00.489Z,22.37
2022-11-10T06:17:27.290Z,22.60
2022-11-10T06:19:54.162Z,22.58
2022-11-10T06:22:20.978Z,20.92
2022-11-10T06:24:47.870Z,21.40
2022-11-10T06:27:14.661Z,23.08
2022-11-10T06:29:41.442Z,23.00
2022-11-10T06:32:08.208Z,22.17
2022-11-10T06:34:35.044Z,22.97
2022-11-10T06:37:01.942Z,21.97
2022-11-10T06:39:28.786Z,22.85
2022-11-10T06:41:55.551Z,20.70
2022-11-10T06:44:22.356Z,22.33
2022-11-10T06:46:49.161Z,21.17
2022-11-10T06:49:15.968Z,23.20
2022-11-10T06:51:42.760Z,21.80
2022-11-10T06:54:09.748Z,24.23
2022-11-10T06:56:36.710Z,20.27
2022-11-10T06:59:03.832Z,22.53
2022-11-10T07:01:30.720Z,21.83
2022-11-10T07:04:18.594Z,21.20
2022-11-10T07:06:47.635Z,20.53
2022-11-10T07:09:15.800Z,21.70
2022-11-10T07:11:42.897Z,22.90
2022-11-10T07:14:10.230Z,21.10
2022-11-10T07:16:37.145Z,21.83
2022-11-10T07:19:04.039Z,19.45
2022-11-10T07:21:30.891Z,21.08
2022-11-10T07:23:57.658Z,22.13
2022-11-10T07:26:24.440Z,21.70
2022-11-10T07:28:51.368Z,20.80
2022-11-10T07:31:18.119Z,22.63
2022-11-10T07:33:47.521Z,22.37
2022-11-10T07:36:17.439Z,20.25
2022-11-10T07:38:44.220Z,20.77
2022-11-10T07:41:11.032Z,19.15
2022-11-10T07:43:37.908Z,22.57
2022-11-10T07:46:04.832Z,19.10
2022-11-10T07:48:31.613Z,20.73
2022-11-10T07:50:58.413Z,19.70
2022-11-10T07:53:25.438Z,21.97
2022-11-10T07:55:52.511Z,20.50
2022-11-10T07:58:19.408Z,20.47
2022-11-10T08:00:47.073Z,21.47
2022-11-10T08:03:16.608Z,20.35
2022-11-10T08:05:43.551Z,19.03
2022-11-10T08:08:10.854Z,19.60
2022-11-10T08:10:38.854Z,19.87
2022-11-10T08:13:08.175Z,19.77
2022-11-10T08:15:35.658Z,18.67
2022-11-10T08:18:05.514Z,21.15
2022-11-10T08:20:32.842Z,21.75
2022-11-10T08:23:02.402Z,21.77
2022-11-10T08:25:34.802Z,19.77
2022-11-10T08:28:14.596Z,21.20
2022-11-10T08:30:43.189Z,20.58
2022-11-10T08:33:12.561Z,20.47
2022-11-10T08:35:41.896Z,19.50
2022-11-10T08:38:15.401Z,20.47
2022-11-10T08:40:42.731Z,19.60
2022-11-10T08:43:11.742Z,18.50
2022-11-10T08:45:40.359Z,19.23
2022-11-10T08:48:12.873Z,17.97
2022-11-10T08:50:40.091Z,17.63
2022-11-10T08:53:19.158Z,17.40
2022-11-10T08:55:46.355Z,17.67
2022-11-10T08:58:15.769Z,18.80
2022-11-10T09:00:42.925Z,18.27
2022-11-10T09:03:23.271Z,17.50
2022-11-10T09:05:55.218Z,17.80
2022-11-10T09:08:25.174Z,16.70
2022-11-10T09:10:52.001Z,16.73
2022-11-10T09:13:27.719Z,15.60
2022-11-10T09:15:56.546Z,17.30
2022-11-10T09:18:23.341Z,15.80
2022-11-10T09:20:50.344Z,17.27
2022-11-10T09:23:19.428Z,16.20
2022-11-10T09:25:53.792Z,15.20
2022-11-10T09:28:21.902Z,16.23
2022-11-10T09:30:52.977Z,15.27
2022-11-10T09:33:20.333Z,16.57
2022-11-10T09:35:47.844Z,16.43
2022-11-10T09:38:14.754Z,17.20
2022-11-10T09:40:44.623Z,14.50
2022-11-10T09:43:19.893Z,14.53
2022-11-10T09:45:51.294Z,15.60
2022-11-10T09:48:25.759Z,15.20
2022-11-10T09:51:11.049Z,14.47
2022-11-10T09:53:50.847Z,14.50
2022-11-10T09:56:34.514Z,16.30
2022-11-10T09:59:04.283Z,15.70
2022-11-10T10:01:38.202Z,16.37
2022-11-10T10:04:20.434Z,15.50
2022-11-10T10:07:18.088Z,16.50
2022-11-10T10:10:14.478Z,17.17
2022-11-10T10:12:43.989Z,15.98
2022-11-10T10:15:16.276Z,16.93
2022-11-10T10:17:48.906Z,15.77
2022-11-10T10:20:27.427Z,16.23
2022-11-10T10:23:12.715Z,17.00
2022-11-10T10:25:41.656Z,17.13
2022-11-10T10:28:14.749Z,17.10
2022-11-10T10:30:43.049Z,16.03
2022-11-10T10:33:18.721Z,17.40
2022-11-10T10:35:47.430Z,16.03
2022-11-10T10:38:39.206Z,17.20
2022-11-10T10:41:23.449Z,16.90
2022-11-10T10:43:56.352Z,17.90
2022-11-10T10:46:32.874Z,16.33
2022-11-10T10:49:28.529Z,14.80
2022-11-10T10:52:16.555Z,15.13
2022-11-10T10:54:43.721Z,15.30
2022-11-10T10:57:30.451Z,14.13
2022-11-10T11:00:19.801Z,16.00
2022-11-10T11:03:04.676Z,15.47
2022-11-10T11:05:32.009Z,14.63
2022-11-10T11:08:01.076Z,14.40
2022-11-10T11:10:35.514Z,14.47
2022-11-10T11:13:31.505Z,14.17
2022-11-10T11:16:00.066Z,13.63
2022-11-10T11:18:29.754Z,13.70
2022-11-10T11:21:11.669Z,13.93
2022-11-10T11:24:01.351Z,13.50
2022-11-10T11:26:55.783Z,14.50
2022-11-10T11:29:28.580Z,13.00
2022-11-10T11:32:21.760Z,14.63
2022-11-10T11:35:13.534Z,13.10
2022-11-10T11:37:59.199Z,12.57
2022-11-10T11:41:01.814Z,12.73
2022-11-10T11:43:50.219Z,13.50
2022-11-10T11:46:30.973Z,12.20
2022-11-10T11:49:02.879Z,13.27
2022-11-10T11:51:32.831Z,11.27
2022-11-10T11:54:24.103Z,12.47
2022-11-10T11:56:52.542Z,11.90
2022-11-10T11:59:49.727Z,12.47
2022-11-10T12:02:43.235Z,12.13
2022-11-10T12:05:13.530Z,11.40
2022-11-10T12:08:10.940Z,10.80
2022-11-10T12:11:10.611Z,9.63
2022-11-10T12:13:44.737Z,8.90
2022-11-10T12:16:11.482Z,10.80
2022-11-10T12:18:51.978Z,10.70
2022-11-10T12:21:45.033Z,10.67
2022-11-10T12:24:21.640Z,12.37
2022-11-10T12:26:54.401Z,9.23
2022-11-10T12:29:24.039Z,9.43
2022-11-10T12:31:54.915Z,9.80
2022-11-10T12:34:40.702Z,9.47
2022-11-10T12:37:16.843Z,8.30
2022-11-10T12:40:16.364Z,8.80
2022-11-10T12:42:47.215Z,9.10
2022-11-10T12:45:16.556Z,8.40
2022-11-10T12:47:45.185Z,8.60
2022-11-10T12:50:30.370Z,9.10
2022-11-10T12:53:03.505Z,8.87
2022-11-10T12:55:42.293Z,7.97
2022-11-10T12:58:13.057Z,9.80
2022-11-10T13:00:54.821Z,9.90
2022-11-10T13:03:33.576Z,8.60
2022-11-10T13:06:03.159Z,8.40
2022-11-10T13:08:41.815Z,9.47
2022-11-10T13:11:13.874Z,8.20
2022-11-10T13:13:59.452Z,9.40
2022-11-10T13:16:41.744Z,9.47
2022-11-10T13:19:10.091Z,9.00
2022-11-10T13:22:05.434Z,8.43
2022-11-10T13:24:34.928Z,8.43
2022-11-10T13:27:02.933Z,8.50
2022-11-10T13:29:48.231Z,7.97
2022-11-10T13:32:14.965Z,7.23
2022-11-10T13:34:42.602Z,9.07
2022-11-10T13:37:34.473Z,8.77
2022-11-10T13:40:23.311Z,8.13
2022-11-10T13:42:58.929Z,8.40
2022-11-10T13:45:37.601Z,8.20
2022-11-10T13:48:13.235Z,7.43
2022-11-10T13:50:46.018Z,7.57
2022-11-10T13:53:26.199Z,8.00
2022-11-10T13:56:31.566Z,7.60
2022-11-10T13:58:58.661Z,8.10
2022-11-10T14:01:30.438Z,8.00
2022-11-10T14:04:02.766Z,8.47
2022-11-10T14:06:43.403Z,8.00
2022-11-10T14:09:34.998Z,7.00
2022-11-10T14:12:34.082Z,7.77
2022-11-10T14:15:12.687Z,9.10
2022-11-10T14:17:49.558Z,7.90
2022-11-10T14:20:32.673Z,7.93
2022-11-10T14:23:00.947Z,7.80
2022-11-10T14:25:42.781Z,8.30
2022-11-10T14:28:29.110Z,8.67
2022-11-10T14:30:57.326Z,7.70
2022-11-10T14:33:25.763Z,8.00
2022-11-10T14:35:55.255Z,7.60
2022-11-10T14:38:23.683Z,9.87
2022-11-10T14:41:02.530Z,9.07
2022-11-10T14:43:36.871Z,8.27
2022-11-10T14:46:06.613Z,9.53
2022-11-10T14:48:39.357Z,6.87
2022-11-10T14:51:15.855Z,8.57
2022-11-10T14:53:54.456Z,8.70
2022-11-10T14:56:28.472Z,12.20
2022-11-10T14:58:59.246Z,12.50
2022-11-10T15:01:34.775Z,13.50
2022-11-10T15:04:07.217Z,13.80
2022-11-10T15:06:34.940Z,7.90
2022-11-10T15:09:13.829Z,13.30
2022-11-10T15:11:53.130Z,13.33
2022-11-10T15:14:42.495Z,13.30
2022-11-10T15:17:12.452Z,17.70
2022-11-10T15:19:50.383Z,11.70
2022-11-10T15:22:35.539Z,12.40
2022-11-10T15:25:13.880Z,15.37
2022-11-10T15:27:40.759Z,9.30
2022-11-10T15:30:23.299Z,7.40
2022-11-10T15:32:51.410Z,8.23
2022-11-10T15:35:28.810Z,12.77
2022-11-10T15:38:21.131Z,9.60
2022-11-10T15:40:52.897Z,11.50
2022-11-10T15:43:19.846Z,10.20
2022-11-10T15:45:58.898Z,9.90
2022-11-10T15:48:26.717Z,10.10
2022-11-10T15:50:55.977Z,9.80
2022-11-10T15:53:31.618Z,9.80
2022-11-10T15:55:58.482Z,9.83
2022-11-10T15:58:27.409Z,8.07
2022-11-10T16:00:54.685Z,8.07
2022-11-10T16:03:24.523Z,9.43
2022-11-10T16:05:51.419Z,9.40
2022-11-10T16:08:21.494Z,8.90
2022-11-10T16:10:51.308Z,9.57
2022-11-10T16:13:23.992Z,9.77
2022-11-10T16:15:51.665Z,8.90
2022-11-10T16:18:22.110Z,8.80
2022-11-10T16:20:50.868Z,9.20
2022-11-10T16:23:18.250Z,9.03
2022-11-10T16:25:47.103Z,9.27
2022-11-10T16:28:19.699Z,9.53
2022-11-10T16:30:46.872Z,9.15
2022-11-10T16:33:18.708Z,9.30
2022-11-10T16:35:49.072Z,9.13
2022-11-10T16:38:20.401Z,8.80
2022-11-10T16:41:11.389Z,8.50
2022-11-10T16:43:38.299Z,9.23
2022-11-10T16:46:13.934Z,9.47
2022-11-10T16:48:45.231Z,8.67
2022-11-10T16:51:14.201Z,9.37
2022-11-10T16:53:41.587Z,9.27
2022-11-10T16:56:18.723Z,9.00
2022-11-10T16:58:45.571Z,10.00
2022-11-10T17:01:28.285Z,8.97
2022-11-10T17:04:01.081Z,9.40
2022-11-10T17:06:29.557Z,10.00
2022-11-10T17:09:00.400Z,8.10
2022-11-10T17:11:27.398Z,10.37
2022-11-10T17:13:54.248Z,8.77
2022-11-10T17:16:23.439Z,8.37
2022-11-10T17:18:50.932Z,9.57
2022-11-10T17:21:18.785Z,9.23
2022-11-10T17:23:45.756Z,9.13
2022-11-10T17:26:15.561Z,9.30
2022-11-10T17:28:42.465Z,8.60
2022-11-10T17:31:09.369Z,8.50
2022-11-10T17:33:36.163Z,9.03
2022-11-10T17:36:05.149Z,9.47
2022-11-10T17:38:33.217Z,9.43
2022-11-10T17:41:00.148Z,8.90
2022-11-10T17:43:27.033Z,9.43
2022-11-10T17:45:53.810Z,9.30
2022-11-10T17:48:21.352Z,9.00
2022-11-10T17:50:48.293Z,9.97
2022-11-10T17:53:22.028Z,9.23
2022-11-10T17:55:49.674Z,10.13
2022-11-10T17:58:17.673Z,8.20
2022-11-10T18:00:45.674Z,9.30
2022-11-10T18:03:17.457Z,9.73
2022-11-10T18:05:44.682Z,9.00
2022-11-10T18:08:12.554Z,8.47
2022-11-10T18:10:51.906Z,8.70
2022-11-10T18:13:18.966Z,8.43
2022-11-10T18:15:47.067Z,10.10
2022-11-10T18:18:15.636Z,8.63
2022-11-10T18:20:43.137Z,10.10
2022-11-10T18:23:12.545Z,8.60
2022-11-10T18:25:41.495Z,7.70
2022-11-10T18:28:09.203Z,8.80
2022-11-10T18:30:37.395Z,7.97
2022-11-10T18:33:05.469Z,8.63
2022-11-10T18:35:34.202Z,8.83
2022-11-10T18:38:01.388Z,8.47
2022-11-10T18:40:28.242Z,8.90
2022-11-10T18:43:06.877Z,7.93
2022-11-10T18:45:35.544Z,8.67
2022-11-10T18:48:03.554Z,8.80
2022-11-10T18:50:30.708Z,9.47
2022-11-10T18:52:57.802Z,9.57
2022-11-10T18:55:24.870Z,9.30
2022-11-10T18:57:52.050Z,9.20
2022-11-10T19:00:19.479Z,8.70
2022-11-10T19:02:46.245Z,8.67
2022-11-10T19:05:13.012Z,8.20
2022-11-10T19:07:39.945Z,8.07
2022-11-10T19:10:06.916Z,8.68
2022-11-10T19:12:33.916Z,8.30
2022-11-10T19:15:00.723Z,8.40
2022-11-10T19:17:27.484Z,7.97
2022-11-10T19:19:56.701Z,8.25
2022-11-10T19:22:24.168Z,8.50
2022-11-10T19:25:07.476Z,8.50
2022-11-10T19:27:35.637Z,8.80
2022-11-10T19:30:02.543Z,8.85
2022-11-10T19:32:29.697Z,9.50
2022-11-10T19:34:56.493Z,9.30
2022-11-10T19:37:23.445Z,10.17
2022-11-10T19:39:50.247Z,9.75
2022-11-10T19:42:17.290Z,10.10
2022-11-10T19:44:44.120Z,8.65
2022-11-10T19:47:10.945Z,9.55
2022-11-10T19:49:38.732Z,9.20
2022-11-10T19:52:05.665Z,8.80
2022-11-10T19:54:32.647Z,10.03
2022-11-10T19:56:59.501Z,9.03
2022-11-10T19:59:26.343Z,8.82
2022-11-10T20:01:53.538Z,9.63
2022-11-10T20:04:20.522Z,9.40
2022-11-10T20:06:47.480Z,8.37
2022-11-10T20:09:14.441Z,8.90
2022-11-10T20:11:41.235Z,9.60
2022-11-10T20:14:08.183Z,9.35
2022-11-10T20:16:35.022Z,9.20
2022-11-10T20:19:01.804Z,10.20
2022-11-10T20:21:28.811Z,9.00
2022-11-10T20:23:56.707Z,9.90
2022-11-10T20:26:24.300Z,10.15
2022-11-10T20:28:51.371Z,9.63
2022-11-10T20:31:24.384Z,9.30
2022-11-10T20:33:52.879Z,9.55
2022-11-10T20:36:26.366Z,10.15
2022-11-10T20:38:54.767Z,9.55
2022-11-10T20:41:24.934Z,9.53
2022-11-10T20:43:52.478Z,9.40
2022-11-10T20:46:53.898Z,10.88
2022-11-10T20:49:08.092Z,10.27
2022-11-10T20:51:35.163Z,10.17
2022-11-10T20:54:02.203Z,10.57
2022-11-10T20:56:30.215Z,11.68
2022-11-10T20:58:57.944Z,10.15
2022-11-10T21:01:25.375Z,9.93
2022-11-10T21:03:53.175Z,10.73
2022-11-10T21:06:20.071Z,11.45
2022-11-10T21:08:46.835Z,9.07
2022-11-10T21:11:33.704Z,11.25
2022-11-10T21:14:01.519Z,9.65
2022-11-10T21:16:28.453Z,11.15
2022-11-10T21:18:56.576Z,9.23
2022-11-10T21:21:27.929Z,10.80
2022-11-10T21:23:57.322Z,9.85
2022-11-10T21:26:24.588Z,10.68
2022-11-10T21:28:51.461Z,10.10
2022-11-10T21:31:18.737Z,10.10
2022-11-10T21:33:45.770Z,11.00
2022-11-10T21:36:12.573Z,9.57
2022-11-10T21:38:39.483Z,10.95
2022-11-10T21:41:06.376Z,9.95
2022-11-10T21:43:33.149Z,11.63
2022-11-10T21:46:04.046Z,10.20
2022-11-10T21:48:30.869Z,10.65
2022-11-10T21:51:05.732Z,11.10
2022-11-10T21:53:33.633Z,10.25
2022-11-10T21:56:06.273Z,10.85
2022-11-10T21:58:33.805Z,10.75
2022-11-10T22:01:06.023Z,11.83
2022-11-10T22:03:34.049Z,12.00
2022-11-10T22:06:19.484Z,10.70
2022-11-10T22:08:47.436Z,10.38
2022-11-10T22:11:39.873Z,11.05
2022-11-10T22:14:32.008Z,12.15
2022-11-10T22:17:18.710Z,12.25
2022-11-10T22:19:45.578Z,11.85
2022-11-10T22:22:14.371Z,11.57
2022-11-10T22:24:41.410Z,12.48
2022-11-10T22:27:08.299Z,11.73
2022-11-10T22:29:35.223Z,9.90
2022-11-10T22:32:02.923Z,10.98
2022-11-10T22:34:30.314Z,11.55
2022-11-10T22:36:59.493Z,10.55
2022-11-10T22:39:46.591Z,10.88
2022-11-10T22:42:32.134Z,10.30
2022-11-10T22:44:59.237Z,11.38
2022-11-10T22:47:26.014Z,10.15
2022-11-10T22:49:52.910Z,10.48
2022-11-10T22:52:19.671Z,10.82
2022-11-10T22:54:46.470Z,10.10
2022-11-10T22:57:13.265Z,11.32
2022-11-10T22:59:40.022Z,9.60
2022-11-10T23:02:06.843Z,9.63
2022-11-10T23:04:33.632Z,10.15
2022-11-10T23:07:00.497Z,10.23
2022-11-10T23:09:27.311Z,9.75
2022-11-10T23:11:54.081Z,10.63
2022-11-10T23:14:20.907Z,9.32
2022-11-10T23:16:47.672Z,9.77
2022-11-10T23:19:14.551Z,9.40
2022-11-10T23:21:41.387Z,10.07
2022-11-10T23:24:08.498Z,9.85
2022-11-10T23:26:35.273Z,11.85
2022-11-10T23:29:02.032Z,9.95
2022-11-10T23:31:29.010Z,11.63
2022-11-10T23:33:57.953Z,10.40
2022-11-10T23:36:26.259Z,10.52
2022-11-10T23:38:54.650Z,9.60
2022-11-10T23:41:31.784Z,9.27
2022-11-10T23:43:58.578Z,10.13
2022-11-10T23:46:25.454Z,10.48
2022-11-10T23:48:52.211Z,10.40
2022-11-10T23:51:19.020Z,10.07
2022-11-10T23:53:45.838Z,9.27
2022-11-10T23:56:13.688Z,9.93
2022-11-10T23:58:40.955Z,9.85
